Johor Bahru, Malaysia
Current Conditions -  °F | °C
As of 6:00 PM on Saturday 22 Nov 2014 (Local Time) from WSSL Reporting Station
Rain Showers Rain Showers  
Wind Chill: 84°   Ceiling: Unl
Heat Index: 92°   Visibility: 5mi
Dew Point: 75°   Wind: 6mph
Humidity: 74%   Direction: 50°NE
Pressure: 29.74"   Gusts: NA
Location:  1.48°N, 103.75°E
Report Text: WSSL 221000Z 05005KT 8000 VCSH FEW012 SCT016TCU 29/24 Q1007 RMK0930Z Q1007
Loading
Personal Weather Stations






























Interactive Weather Map New forecast layout! Learn more

10-Day Weather Forecast

Advertisements
Track Severe Weather on mobile